sensor_id;sensor_type;location;lat;lon;timestamp;P1;durP1;ratioP1;P2;durP2;ratioP2
29940;SDS011;16801;53.562;10.038;2023-07-31T00:02:44;3.10;;;1.70;;
29940;SDS011;16801;53.562;10.038;2023-07-31T00:06:07;4.07;;;1.50;;
29940;SDS011;16801;53.562;10.038;2023-07-31T00:09:28;1.70;;;1.60;;
29940;SDS011;16801;53.562;10.038;2023-07-31T00:12:49;1.27;;;1.17;;
29940;SDS011;16801;53.562;10.038;2023-07-31T00:16:10;3.37;;;1.33;;
29940;SDS011;16801;53.562;10.038;2023-07-31T00:19:31;2.43;;;1.73;;
29940;SDS011;16801;53.562;10.038;2023-07-31T00:22:53;4.67;;;3.10;;
29940;SDS011;16801;53.562;10.038;2023-07-31T00:26:14;2.67;;;1.97;;
29940;SDS011;16801;53.562;10.038;2023-07-31T00:29:35;4.20;;;2.20;;
29940;SDS011;16801;53.562;10.038;2023-07-31T00:32:57;4.30;;;1.70;;
29940;SDS011;16801;53.562;10.038;2023-07-31T00:36:18;2.03;;;1.57;;
29940;SDS011;16801;53.562;10.038;2023-07-31T00:39:41;2.20;;;1.90;;
29940;SDS011;16801;53.562;10.038;2023-07-31T00:43:02;2.55;;;2.08;;
29940;SDS011;16801;53.562;10.038;2023-07-31T00:46:23;5.30;;;2.00;;
29940;SDS011;16801;53.562;10.038;2023-07-31T00:49:44;2.40;;;1.87;;
29940;SDS011;16801;53.562;10.038;2023-07-31T00:53:06;5.17;;;2.03;;
29940;SDS011;16801;53.562;10.038;2023-07-31T00:56:29;4.60;;;2.53;;
29940;SDS011;16801;53.562;10.038;2023-07-31T00:59:50;2.53;;;2.20;;
29940;SDS011;16801;53.562;10.038;2023-07-31T01:03:10;5.23;;;2.03;;
29940;SDS011;16801;53.562;10.038;2023-07-31T01:06:33;2.43;;;1.60;;
29940;SDS011;16801;53.562;10.038;2023-07-31T01:09:59;3.50;;;1.53;;
29940;SDS011;16801;53.562;10.038;2023-07-31T01:13:26;3.23;;;1.80;;
29940;SDS011;16801;53.562;10.038;2023-07-31T01:16:47;2.43;;;1.90;;
29940;SDS011;16801;53.562;10.038;2023-07-31T01:20:09;5.17;;;2.47;;
29940;SDS011;16801;53.562;10.038;2023-07-31T01:23:35;3.27;;;2.10;;
29940;SDS011;16801;53.562;10.038;2023-07-31T01:27:14;2.13;;;1.87;;
29940;SDS011;16801;53.562;10.038;2023-07-31T01:30:40;6.27;;;2.23;;
29940;SDS011;16801;53.562;10.038;2023-07-31T01:34:03;4.60;;;1.73;;
29940;SDS011;16801;53.562;10.038;2023-07-31T01:37:29;9.77;;;3.10;;
29940;SDS011;16801;53.562;10.038;2023-07-31T01:40:50;9.97;;;2.17;;
29940;SDS011;16801;53.562;10.038;2023-07-31T01:44:14;2.73;;;1.83;;
29940;SDS011;16801;53.562;10.038;2023-07-31T01:47:35;2.60;;;1.77;;
29940;SDS011;16801;53.562;10.038;2023-07-31T01:50:56;4.30;;;2.20;;
29940;SDS011;16801;53.562;10.038;2023-07-31T01:54:20;3.13;;;1.90;;
29940;SDS011;16801;53.562;10.038;2023-07-31T01:57:41;1.93;;;1.60;;
29940;SDS011;16801;53.562;10.038;2023-07-31T02:01:03;2.70;;;2.37;;
29940;SDS011;16801;53.562;10.038;2023-07-31T02:04:27;5.00;;;2.00;;
29940;SDS011;16801;53.562;10.038;2023-07-31T02:07:48;2.50;;;1.90;;
29940;SDS011;16801;53.562;10.038;2023-07-31T02:11:09;3.83;;;2.17;;
29940;SDS011;16801;53.562;10.038;2023-07-31T02:14:30;5.70;;;2.07;;
29940;SDS011;16801;53.562;10.038;2023-07-31T02:17:52;2.97;;;2.10;;
29940;SDS011;16801;53.562;10.038;2023-07-31T02:21:13;3.93;;;1.73;;
29940;SDS011;16801;53.562;10.038;2023-07-31T02:24:34;2.47;;;2.00;;
29940;SDS011;16801;53.562;10.038;2023-07-31T02:27:55;5.50;;;1.77;;
29940;SDS011;16801;53.562;10.038;2023-07-31T02:31:16;5.03;;;2.20;;
29940;SDS011;16801;53.562;10.038;2023-07-31T02:34:40;2.67;;;2.30;;
29940;SDS011;16801;53.562;10.038;2023-07-31T02:38:01;2.00;;;1.30;;
29940;SDS011;16801;53.562;10.038;2023-07-31T02:41:21;2.27;;;1.73;;
29940;SDS011;16801;53.562;10.038;2023-07-31T02:44:42;1.63;;;1.40;;
29940;SDS011;16801;53.562;10.038;2023-07-31T02:48:03;4.53;;;2.23;;
29940;SDS011;16801;53.562;10.038;2023-07-31T02:51:26;2.43;;;2.13;;
29940;SDS011;16801;53.562;10.038;2023-07-31T02:54:47;1.77;;;1.50;;
29940;SDS011;16801;53.562;10.038;2023-07-31T02:58:08;5.43;;;2.33;;
29940;SDS011;16801;53.562;10.038;2023-07-31T03:01:29;3.37;;;2.07;;
29940;SDS011;16801;53.562;10.038;2023-07-31T03:04:49;2.37;;;1.37;;
29940;SDS011;16801;53.562;10.038;2023-07-31T03:08:12;3.50;;;1.73;;
29940;SDS011;16801;53.562;10.038;2023-07-31T03:11:33;4.30;;;2.07;;
29940;SDS011;16801;53.562;10.038;2023-07-31T03:14:53;3.50;;;1.93;;
29940;SDS011;16801;53.562;10.038;2023-07-31T03:18:14;3.40;;;2.20;;
29940;SDS011;16801;53.562;10.038;2023-07-31T03:21:35;4.93;;;1.67;;
29940;SDS011;16801;53.562;10.038;2023-07-31T03:24:57;1.43;;;1.30;;
29940;SDS011;16801;53.562;10.038;2023-07-31T03:28:18;1.60;;;1.50;;
29940;SDS011;16801;53.562;10.038;2023-07-31T03:31:39;1.43;;;1.27;;
29940;SDS011;16801;53.562;10.038;2023-07-31T03:35:00;1.57;;;1.47;;
29940;SDS011;16801;53.562;10.038;2023-07-31T03:38:21;3.27;;;1.93;;
29940;SDS011;16801;53.562;10.038;2023-07-31T03:41:43;3.23;;;1.77;;
29940;SDS011;16801;53.562;10.038;2023-07-31T03:45:05;2.00;;;1.43;;
29940;SDS011;16801;53.562;10.038;2023-07-31T03:48:27;4.47;;;2.00;;
29940;SDS011;16801;53.562;10.038;2023-07-31T03:51:49;8.70;;;3.53;;
29940;SDS011;16801;53.562;10.038;2023-07-31T03:55:10;4.30;;;1.87;;
29940;SDS011;16801;53.562;10.038;2023-07-31T03:58:32;2.40;;;1.67;;
29940;SDS011;16801;53.562;10.038;2023-07-31T04:01:54;1.77;;;1.53;;
29940;SDS011;16801;53.562;10.038;2023-07-31T04:05:15;1.87;;;1.77;;
29940;SDS011;16801;53.562;10.038;2023-07-31T04:08:36;1.83;;;1.73;;
29940;SDS011;16801;53.562;10.038;2023-07-31T04:11:57;2.80;;;1.53;;
29940;SDS011;16801;53.562;10.038;2023-07-31T04:15:19;4.43;;;1.90;;
29940;SDS011;16801;53.562;10.038;2023-07-31T04:18:40;2.70;;;1.67;;
29940;SDS011;16801;53.562;10.038;2023-07-31T04:22:01;3.00;;;1.30;;
29940;SDS011;16801;53.562;10.038;2023-07-31T04:25:22;8.03;;;2.07;;
29940;SDS011;16801;53.562;10.038;2023-07-31T04:28:43;4.73;;;2.20;;
29940;SDS011;16801;53.562;10.038;2023-07-31T04:32:05;1.40;;;1.27;;
29940;SDS011;16801;53.562;10.038;2023-07-31T04:35:27;1.57;;;1.47;;
29940;SDS011;16801;53.562;10.038;2023-07-31T04:38:48;1.83;;;1.60;;
29940;SDS011;16801;53.562;10.038;2023-07-31T04:42:08;2.27;;;1.67;;
29940;SDS011;16801;53.562;10.038;2023-07-31T04:45:29;1.00;;;1.00;;
29940;SDS011;16801;53.562;10.038;2023-07-31T04:48:52;1.23;;;1.13;;
29940;SDS011;16801;53.562;10.038;2023-07-31T04:52:12;1.10;;;1.00;;
29940;SDS011;16801;53.562;10.038;2023-07-31T04:55:33;1.27;;;1.17;;
29940;SDS011;16801;53.562;10.038;2023-07-31T04:58:55;1.53;;;1.30;;
29940;SDS011;16801;53.562;10.038;2023-07-31T05:02:17;1.57;;;1.47;;
29940;SDS011;16801;53.562;10.038;2023-07-31T05:05:39;1.80;;;1.50;;
29940;SDS011;16801;53.562;10.038;2023-07-31T05:09:03;1.67;;;1.30;;
29940;SDS011;16801;53.562;10.038;2023-07-31T05:12:24;1.70;;;1.50;;
29940;SDS011;16801;53.562;10.038;2023-07-31T05:15:45;1.27;;;1.20;;
29940;SDS011;16801;53.562;10.038;2023-07-31T05:19:05;1.37;;;1.27;;
29940;SDS011;16801;53.562;10.038;2023-07-31T05:22:28;1.23;;;1.13;;
29940;SDS011;16801;53.562;10.038;2023-07-31T05:25:49;1.63;;;1.53;;
29940;SDS011;16801;53.562;10.038;2023-07-31T05:29:10;1.87;;;1.67;;
29940;SDS011;16801;53.562;10.038;2023-07-31T05:32:31;1.87;;;1.77;;
29940;SDS011;16801;53.562;10.038;2023-07-31T05:35:52;1.20;;;1.10;;
29940;SDS011;16801;53.562;10.038;2023-07-31T05:39:14;1.50;;;1.40;;
29940;SDS011;16801;53.562;10.038;2023-07-31T05:42:34;1.47;;;1.37;;
29940;SDS011;16801;53.562;10.038;2023-07-31T05:45:57;1.93;;;1.83;;
29940;SDS011;16801;53.562;10.038;2023-07-31T05:49:18;2.10;;;1.83;;
29940;SDS011;16801;53.562;10.038;2023-07-31T05:52:39;3.07;;;2.13;;
29940;SDS011;16801;53.562;10.038;2023-07-31T05:56:01;1.77;;;1.67;;
29940;SDS011;16801;53.562;10.038;2023-07-31T05:59:22;1.83;;;1.63;;
29940;SDS011;16801;53.562;10.038;2023-07-31T06:02:43;2.00;;;1.83;;
29940;SDS011;16801;53.562;10.038;2023-07-31T06:06:04;1.80;;;1.70;;
29940;SDS011;16801;53.562;10.038;2023-07-31T06:09:24;2.97;;;2.27;;
29940;SDS011;16801;53.562;10.038;2023-07-31T06:12:47;1.30;;;1.30;;
29940;SDS011;16801;53.562;10.038;2023-07-31T06:16:07;1.70;;;1.60;;
29940;SDS011;16801;53.562;10.038;2023-07-31T06:19:28;1.67;;;1.57;;
29940;SDS011;16801;53.562;10.038;2023-07-31T06:22:50;2.97;;;1.23;;
29940;SDS011;16801;53.562;10.038;2023-07-31T06:26:10;1.30;;;1.30;;
29940;SDS011;16801;53.562;10.038;2023-07-31T06:29:32;1.97;;;1.70;;
29940;SDS011;16801;53.562;10.038;2023-07-31T06:32:53;1.53;;;1.43;;
29940;SDS011;16801;53.562;10.038;2023-07-31T06:36:14;10.03;;;2.60;;
29940;SDS011;16801;53.562;10.038;2023-07-31T06:39:35;1.50;;;1.40;;
29940;SDS011;16801;53.562;10.038;2023-07-31T06:42:56;1.60;;;1.10;;
29940;SDS011;16801;53.562;10.038;2023-07-31T06:46:18;1.57;;;1.47;;
29940;SDS011;16801;53.562;10.038;2023-07-31T06:49:39;1.17;;;1.07;;
29940;SDS011;16801;53.562;10.038;2023-07-31T06:53:00;2.57;;;1.70;;
29940;SDS011;16801;53.562;10.038;2023-07-31T06:56:21;2.10;;;2.00;;
29940;SDS011;16801;53.562;10.038;2023-07-31T06:59:42;1.60;;;1.50;;
29940;SDS011;16801;53.562;10.038;2023-07-31T07:03:04;1.30;;;1.20;;
29940;SDS011;16801;53.562;10.038;2023-07-31T07:06:25;1.30;;;1.20;;
29940;SDS011;16801;53.562;10.038;2023-07-31T07:09:46;1.83;;;1.73;;
29940;SDS011;16801;53.562;10.038;2023-07-31T07:13:06;1.30;;;1.20;;
29940;SDS011;16801;53.562;10.038;2023-07-31T07:16:28;2.70;;;1.43;;
29940;SDS011;16801;53.562;10.038;2023-07-31T07:19:50;2.03;;;1.63;;
29940;SDS011;16801;53.562;10.038;2023-07-31T07:23:11;1.30;;;1.20;;
29940;SDS011;16801;53.562;10.038;2023-07-31T07:26:32;1.75;;;1.65;;
29940;SDS011;16801;53.562;10.038;2023-07-31T07:29:53;1.83;;;1.73;;
29940;SDS011;16801;53.562;10.038;2023-07-31T07:33:14;1.45;;;1.35;;
29940;SDS011;16801;53.562;10.038;2023-07-31T07:36:36;2.17;;;1.67;;
29940;SDS011;16801;53.562;10.038;2023-07-31T07:39:57;2.60;;;1.20;;
29940;SDS011;16801;53.562;10.038;2023-07-31T07:43:18;1.00;;;1.00;;
29940;SDS011;16801;53.562;10.038;2023-07-31T07:46:39;1.50;;;1.33;;
29940;SDS011;16801;53.562;10.038;2023-07-31T07:50:00;1.45;;;1.13;;
29940;SDS011;16801;53.562;10.038;2023-07-31T07:53:23;1.50;;;1.40;;
29940;SDS011;16801;53.562;10.038;2023-07-31T07:56:44;1.33;;;1.23;;
29940;SDS011;16801;53.562;10.038;2023-07-31T08:00:05;0.90;;;0.90;;
29940;SDS011;16801;53.562;10.038;2023-07-31T08:03:33;2.13;;;1.80;;
29940;SDS011;16801;53.562;10.038;2023-07-31T08:06:53;1.95;;;1.10;;
29940;SDS011;16801;53.562;10.038;2023-07-31T08:10:16;1.57;;;1.47;;
29940;SDS011;16801;53.562;10.038;2023-07-31T08:13:37;1.38;;;1.27;;
29940;SDS011;16801;53.562;10.038;2023-07-31T08:16:57;1.05;;;0.95;;
29940;SDS011;16801;53.562;10.038;2023-07-31T08:20:19;1.13;;;1.10;;
29940;SDS011;16801;53.562;10.038;2023-07-31T08:23:40;1.00;;;0.90;;
29940;SDS011;16801;53.562;10.038;2023-07-31T08:27:02;1.00;;;1.00;;
29940;SDS011;16801;53.562;10.038;2023-07-31T08:30:23;1.45;;;1.35;;
29940;SDS011;16801;53.562;10.038;2023-07-31T08:33:44;1.10;;;1.10;;
29940;SDS011;16801;53.562;10.038;2023-07-31T08:37:05;0.73;;;0.73;;
29940;SDS011;16801;53.562;10.038;2023-07-31T08:40:26;0.97;;;0.90;;
29940;SDS011;16801;53.562;10.038;2023-07-31T08:43:50;1.10;;;1.10;;
29940;SDS011;16801;53.562;10.038;2023-07-31T08:47:12;1.37;;;1.10;;
29940;SDS011;16801;53.562;10.038;2023-07-31T08:50:34;0.77;;;0.77;;
29940;SDS011;16801;53.562;10.038;2023-07-31T08:53:56;1.30;;;1.20;;
29940;SDS011;16801;53.562;10.038;2023-07-31T08:57:17;0.80;;;0.80;;
29940;SDS011;16801;53.562;10.038;2023-07-31T09:00:40;2.22;;;1.08;;
29940;SDS011;16801;53.562;10.038;2023-07-31T09:04:03;1.60;;;1.20;;
29940;SDS011;16801;53.562;10.038;2023-07-31T09:07:26;2.08;;;1.30;;
29940;SDS011;16801;53.562;10.038;2023-07-31T09:10:47;1.13;;;1.10;;
29940;SDS011;16801;53.562;10.038;2023-07-31T09:14:09;2.22;;;1.48;;
29940;SDS011;16801;53.562;10.038;2023-07-31T09:17:32;1.27;;;1.00;;
29940;SDS011;16801;53.562;10.038;2023-07-31T09:21:02;0.95;;;0.95;;
29940;SDS011;16801;53.562;10.038;2023-07-31T09:24:27;1.05;;;1.05;;
29940;SDS011;16801;53.562;10.038;2023-07-31T09:27:49;2.90;;;1.20;;
29940;SDS011;16801;53.562;10.038;2023-07-31T09:31:12;1.85;;;1.35;;
29940;SDS011;16801;53.562;10.038;2023-07-31T09:34:37;0.73;;;0.73;;
29940;SDS011;16801;53.562;10.038;2023-07-31T09:37:59;0.70;;;0.70;;
29940;SDS011;16801;53.562;10.038;2023-07-31T09:41:23;1.38;;;1.15;;
29940;SDS011;16801;53.562;10.038;2023-07-31T09:44:44;0.80;;;0.80;;
29940;SDS011;16801;53.562;10.038;2023-07-31T09:48:06;1.42;;;0.73;;
29940;SDS011;16801;53.562;10.038;2023-07-31T09:51:30;0.77;;;0.77;;
29940;SDS011;16801;53.562;10.038;2023-07-31T09:54:51;0.68;;;0.68;;
29940;SDS011;16801;53.562;10.038;2023-07-31T09:58:12;0.85;;;0.85;;
29940;SDS011;16801;53.562;10.038;2023-07-31T10:01:33;0.80;;;0.80;;
29940;SDS011;16801;53.562;10.038;2023-07-31T10:04:56;1.35;;;1.25;;
29940;SDS011;16801;53.562;10.038;2023-07-31T10:08:23;1.05;;;0.80;;
29940;SDS011;16801;53.562;10.038;2023-07-31T10:11:51;0.85;;;0.85;;
29940;SDS011;16801;53.562;10.038;2023-07-31T10:15:19;1.45;;;1.27;;
29940;SDS011;16801;53.562;10.038;2023-07-31T10:18:41;1.50;;;1.33;;
29940;SDS011;16801;53.562;10.038;2023-07-31T10:22:02;1.42;;;1.33;;
29940;SDS011;16801;53.562;10.038;2023-07-31T10:25:25;1.15;;;0.90;;
29940;SDS011;16801;53.562;10.038;2023-07-31T10:28:46;1.13;;;1.00;;
29940;SDS011;16801;53.562;10.038;2023-07-31T10:32:08;0.70;;;0.70;;
29940;SDS011;16801;53.562;10.038;2023-07-31T10:35:31;0.60;;;0.60;;
29940;SDS011;16801;53.562;10.038;2023-07-31T10:38:52;0.73;;;0.60;;
29940;SDS011;16801;53.562;10.038;2023-07-31T10:42:17;0.73;;;0.60;;
29940;SDS011;16801;53.562;10.038;2023-07-31T10:45:39;0.70;;;0.70;;
29940;SDS011;16801;53.562;10.038;2023-07-31T10:49:02;0.65;;;0.63;;
29940;SDS011;16801;53.562;10.038;2023-07-31T10:52:23;1.33;;;0.60;;
29940;SDS011;16801;53.562;10.038;2023-07-31T10:55:46;0.47;;;0.45;;
29940;SDS011;16801;53.562;10.038;2023-07-31T10:59:09;0.68;;;0.68;;
29940;SDS011;16801;53.562;10.038;2023-07-31T11:02:33;0.85;;;0.82;;
29940;SDS011;16801;53.562;10.038;2023-07-31T11:05:59;1.70;;;1.60;;
29940;SDS011;16801;53.562;10.038;2023-07-31T11:09:22;0.85;;;0.85;;
29940;SDS011;16801;53.562;10.038;2023-07-31T11:12:43;1.70;;;1.60;;
29940;SDS011;16801;53.562;10.038;2023-07-31T11:16:07;1.92;;;1.75;;
29940;SDS011;16801;53.562;10.038;2023-07-31T11:19:28;5.20;;;4.30;;
29940;SDS011;16801;53.562;10.038;2023-07-31T11:22:49;2.92;;;2.72;;
29940;SDS011;16801;53.562;10.038;2023-07-31T11:26:10;3.42;;;2.90;;
29940;SDS011;16801;53.562;10.038;2023-07-31T11:29:31;3.47;;;3.20;;
29940;SDS011;16801;53.562;10.038;2023-07-31T11:32:54;4.32;;;3.47;;
29940;SDS011;16801;53.562;10.038;2023-07-31T11:36:16;4.57;;;3.63;;
29940;SDS011;16801;53.562;10.038;2023-07-31T11:39:38;3.83;;;3.47;;
29940;SDS011;16801;53.562;10.038;2023-07-31T11:42:58;5.47;;;2.97;;
29940;SDS011;16801;53.562;10.038;2023-07-31T11:46:25;2.70;;;2.50;;
29940;SDS011;16801;53.562;10.038;2023-07-31T11:49:47;4.30;;;3.50;;
29940;SDS011;16801;53.562;10.038;2023-07-31T11:53:09;2.10;;;1.90;;
29940;SDS011;16801;53.562;10.038;2023-07-31T11:56:30;2.38;;;2.17;;
29940;SDS011;16801;53.562;10.038;2023-07-31T11:59:51;2.60;;;2.30;;
29940;SDS011;16801;53.562;10.038;2023-07-31T12:03:13;1.80;;;1.55;;
29940;SDS011;16801;53.562;10.038;2023-07-31T12:06:36;2.97;;;2.78;;
29940;SDS011;16801;53.562;10.038;2023-07-31T12:09:57;3.28;;;1.67;;
29940;SDS011;16801;53.562;10.038;2023-07-31T12:13:20;1.50;;;1.40;;
29940;SDS011;16801;53.562;10.038;2023-07-31T12:16:42;0.85;;;0.82;;
29940;SDS011;16801;53.562;10.038;2023-07-31T12:20:03;0.88;;;0.88;;
29940;SDS011;16801;53.562;10.038;2023-07-31T12:23:28;0.90;;;0.60;;
29940;SDS011;16801;53.562;10.038;2023-07-31T12:26:50;1.20;;;1.15;;
29940;SDS011;16801;53.562;10.038;2023-07-31T12:30:25;5.43;;;4.90;;
29940;SDS011;16801;53.562;10.038;2023-07-31T12:33:48;1.70;;;1.58;;
29940;SDS011;16801;53.562;10.038;2023-07-31T12:37:10;1.38;;;0.93;;
29940;SDS011;16801;53.562;10.038;2023-07-31T12:40:32;0.75;;;0.75;;
29940;SDS011;16801;53.562;10.038;2023-07-31T12:43:53;0.40;;;0.40;;
29940;SDS011;16801;53.562;10.038;2023-07-31T12:47:14;0.98;;;0.43;;
29940;SDS011;16801;53.562;10.038;2023-07-31T12:50:35;1.13;;;1.08;;
29940;SDS011;16801;53.562;10.038;2023-07-31T12:53:56;0.70;;;0.70;;
29940;SDS011;16801;53.562;10.038;2023-07-31T12:57:18;0.43;;;0.43;;
29940;SDS011;16801;53.562;10.038;2023-07-31T13:00:39;0.77;;;0.77;;
29940;SDS011;16801;53.562;10.038;2023-07-31T13:04:00;0.63;;;0.52;;
29940;SDS011;16801;53.562;10.038;2023-07-31T13:07:21;0.90;;;0.47;;
29940;SDS011;16801;53.562;10.038;2023-07-31T13:10:42;0.55;;;0.52;;
29940;SDS011;16801;53.562;10.038;2023-07-31T13:14:04;1.38;;;0.60;;
29940;SDS011;16801;53.562;10.038;2023-07-31T13:17:25;1.75;;;0.57;;
29940;SDS011;16801;53.562;10.038;2023-07-31T13:20:46;0.32;;;0.32;;
29940;SDS011;16801;53.562;10.038;2023-07-31T13:24:07;0.30;;;0.30;;
29940;SDS011;16801;53.562;10.038;2023-07-31T13:27:29;0.60;;;0.60;;
29940;SDS011;16801;53.562;10.038;2023-07-31T13:30:51;0.57;;;0.57;;
29940;SDS011;16801;53.562;10.038;2023-07-31T13:34:12;0.45;;;0.45;;
29940;SDS011;16801;53.562;10.038;2023-07-31T13:37:33;12.85;;;11.48;;
29940;SDS011;16801;53.562;10.038;2023-07-31T13:40:53;13.52;;;12.27;;
29940;SDS011;16801;53.562;10.038;2023-07-31T13:44:16;24.73;;;22.10;;
29940;SDS011;16801;53.562;10.038;2023-07-31T13:47:38;10.00;;;7.95;;
29940;SDS011;16801;53.562;10.038;2023-07-31T13:51:00;13.05;;;11.68;;
29940;SDS011;16801;53.562;10.038;2023-07-31T13:54:22;8.55;;;7.22;;
29940;SDS011;16801;53.562;10.038;2023-07-31T13:57:43;8.95;;;8.15;;
29940;SDS011;16801;53.562;10.038;2023-07-31T14:01:04;2.03;;;1.92;;
29940;SDS011;16801;53.562;10.038;2023-07-31T14:04:26;1.35;;;1.25;;
29940;SDS011;16801;53.562;10.038;2023-07-31T14:07:47;0.90;;;0.90;;
29940;SDS011;16801;53.562;10.038;2023-07-31T14:11:08;0.73;;;0.73;;
29940;SDS011;16801;53.562;10.038;2023-07-31T14:14:29;0.90;;;0.90;;
29940;SDS011;16801;53.562;10.038;2023-07-31T14:17:50;0.70;;;0.70;;
29940;SDS011;16801;53.562;10.038;2023-07-31T14:21:12;0.80;;;0.80;;
29940;SDS011;16801;53.562;10.038;2023-07-31T14:24:33;0.57;;;0.57;;
29940;SDS011;16801;53.562;10.038;2023-07-31T14:27:54;0.40;;;0.40;;
29940;SDS011;16801;53.562;10.038;2023-07-31T14:31:15;0.50;;;0.50;;
29940;SDS011;16801;53.562;10.038;2023-07-31T14:34:35;1.40;;;0.60;;
29940;SDS011;16801;53.562;10.038;2023-07-31T14:37:57;0.45;;;0.45;;
29940;SDS011;16801;53.562;10.038;2023-07-31T14:41:18;1.27;;;0.90;;
29940;SDS011;16801;53.562;10.038;2023-07-31T14:44:39;0.40;;;0.40;;
29940;SDS011;16801;53.562;10.038;2023-07-31T14:48:00;3.17;;;1.05;;
29940;SDS011;16801;53.562;10.038;2023-07-31T14:51:21;1.05;;;0.93;;
29940;SDS011;16801;53.562;10.038;2023-07-31T14:54:43;0.75;;;0.75;;
29940;SDS011;16801;53.562;10.038;2023-07-31T14:58:04;1.52;;;1.02;;
29940;SDS011;16801;53.562;10.038;2023-07-31T15:01:25;1.23;;;1.00;;
29940;SDS011;16801;53.562;10.038;2023-07-31T15:04:46;7.43;;;1.40;;
29940;SDS011;16801;53.562;10.038;2023-07-31T15:08:07;0.70;;;0.70;;
29940;SDS011;16801;53.562;10.038;2023-07-31T15:11:29;1.23;;;1.05;;
29940;SDS011;16801;53.562;10.038;2023-07-31T15:14:50;1.23;;;0.70;;
29940;SDS011;16801;53.562;10.038;2023-07-31T15:18:11;2.63;;;1.17;;
29940;SDS011;16801;53.562;10.038;2023-07-31T15:21:32;1.23;;;0.98;;
29940;SDS011;16801;53.562;10.038;2023-07-31T15:24:53;0.82;;;0.82;;
29940;SDS011;16801;53.562;10.038;2023-07-31T15:28:15;1.80;;;1.00;;
29940;SDS011;16801;53.562;10.038;2023-07-31T15:31:36;0.98;;;0.95;;
29940;SDS011;16801;53.562;10.038;2023-07-31T15:34:58;1.70;;;0.95;;
29940;SDS011;16801;53.562;10.038;2023-07-31T15:38:19;1.23;;;1.13;;
29940;SDS011;16801;53.562;10.038;2023-07-31T15:41:40;5.50;;;0.82;;
29940;SDS011;16801;53.562;10.038;2023-07-31T15:45:03;1.55;;;1.45;;
29940;SDS011;16801;53.562;10.038;2023-07-31T15:48:24;1.00;;;1.00;;
29940;SDS011;16801;53.562;10.038;2023-07-31T15:51:45;0.93;;;0.93;;
29940;SDS011;16801;53.562;10.038;2023-07-31T15:55:06;1.63;;;1.52;;
29940;SDS011;16801;53.562;10.038;2023-07-31T15:58:27;0.88;;;0.88;;
29940;SDS011;16801;53.562;10.038;2023-07-31T16:01:49;2.45;;;1.65;;
29940;SDS011;16801;53.562;10.038;2023-07-31T16:05:10;2.80;;;1.60;;
29940;SDS011;16801;53.562;10.038;2023-07-31T16:08:31;1.10;;;1.10;;
29940;SDS011;16801;53.562;10.038;2023-07-31T16:11:52;1.80;;;1.70;;
29940;SDS011;16801;53.562;10.038;2023-07-31T16:15:13;1.83;;;1.52;;
29940;SDS011;16801;53.562;10.038;2023-07-31T16:18:35;2.17;;;2.05;;
29940;SDS011;16801;53.562;10.038;2023-07-31T16:21:56;1.48;;;1.38;;
29940;SDS011;16801;53.562;10.038;2023-07-31T16:25:18;1.90;;;1.80;;
29940;SDS011;16801;53.562;10.038;2023-07-31T16:28:38;2.33;;;1.77;;
29940;SDS011;16801;53.562;10.038;2023-07-31T16:31:59;1.75;;;1.65;;
29940;SDS011;16801;53.562;10.038;2023-07-31T16:35:21;2.13;;;1.83;;
29940;SDS011;16801;53.562;10.038;2023-07-31T16:38:42;2.95;;;2.75;;
29940;SDS011;16801;53.562;10.038;2023-07-31T16:42:04;2.08;;;1.88;;
29940;SDS011;16801;53.562;10.038;2023-07-31T16:45:25;2.42;;;2.22;;
29940;SDS011;16801;53.562;10.038;2023-07-31T16:48:46;2.63;;;2.42;;
29940;SDS011;16801;53.562;10.038;2023-07-31T16:52:09;1.88;;;1.70;;
29940;SDS011;16801;53.562;10.038;2023-07-31T16:55:30;1.27;;;1.17;;
29940;SDS011;16801;53.562;10.038;2023-07-31T16:58:53;1.98;;;1.88;;
29940;SDS011;16801;53.562;10.038;2023-07-31T17:02:14;1.27;;;1.17;;
29940;SDS011;16801;53.562;10.038;2023-07-31T17:05:35;1.30;;;1.20;;
29940;SDS011;16801;53.562;10.038;2023-07-31T17:08:57;2.90;;;2.63;;
29940;SDS011;16801;53.562;10.038;2023-07-31T17:12:18;1.50;;;1.40;;
29940;SDS011;16801;53.562;10.038;2023-07-31T17:15:39;1.58;;;1.48;;
29940;SDS011;16801;53.562;10.038;2023-07-31T17:19:00;2.40;;;1.88;;
29940;SDS011;16801;53.562;10.038;2023-07-31T17:22:21;1.88;;;1.77;;
29940;SDS011;16801;53.562;10.038;2023-07-31T17:25:43;1.52;;;1.42;;
29940;SDS011;16801;53.562;10.038;2023-07-31T17:29:04;3.22;;;2.20;;
29940;SDS011;16801;53.562;10.038;2023-07-31T17:32:25;1.77;;;1.67;;
29940;SDS011;16801;53.562;10.038;2023-07-31T17:35:46;2.67;;;1.80;;
29940;SDS011;16801;53.562;10.038;2023-07-31T17:39:07;1.65;;;1.55;;
29940;SDS011;16801;53.562;10.038;2023-07-31T17:42:29;1.92;;;1.45;;
29940;SDS011;16801;53.562;10.038;2023-07-31T17:45:50;2.58;;;1.30;;
29940;SDS011;16801;53.562;10.038;2023-07-31T17:49:11;2.15;;;1.70;;
29940;SDS011;16801;53.562;10.038;2023-07-31T17:52:32;2.53;;;2.33;;
29940;SDS011;16801;53.562;10.038;2023-07-31T17:55:54;3.38;;;2.78;;
29940;SDS011;16801;53.562;10.038;2023-07-31T17:59:16;1.52;;;1.42;;
29940;SDS011;16801;53.562;10.038;2023-07-31T18:02:37;1.70;;;1.60;;
29940;SDS011;16801;53.562;10.038;2023-07-31T18:05:58;2.28;;;2.08;;
29940;SDS011;16801;53.562;10.038;2023-07-31T18:09:19;2.95;;;2.22;;
29940;SDS011;16801;53.562;10.038;2023-07-31T18:12:40;3.40;;;2.75;;
29940;SDS011;16801;53.562;10.038;2023-07-31T18:16:02;3.40;;;3.00;;
29940;SDS011;16801;53.562;10.038;2023-07-31T18:19:24;6.75;;;3.50;;
29940;SDS011;16801;53.562;10.038;2023-07-31T18:22:44;3.17;;;2.45;;
29940;SDS011;16801;53.562;10.038;2023-07-31T18:26:05;2.58;;;2.10;;
29940;SDS011;16801;53.562;10.038;2023-07-31T18:29:26;1.65;;;1.55;;
29940;SDS011;16801;53.562;10.038;2023-07-31T18:32:48;2.70;;;1.88;;
29940;SDS011;16801;53.562;10.038;2023-07-31T18:36:09;3.13;;;2.55;;
29940;SDS011;16801;53.562;10.038;2023-07-31T18:39:30;5.63;;;2.88;;
29940;SDS011;16801;53.562;10.038;2023-07-31T18:42:52;2.78;;;2.55;;
29940;SDS011;16801;53.562;10.038;2023-07-31T18:46:13;3.38;;;3.08;;
29940;SDS011;16801;53.562;10.038;2023-07-31T18:49:38;2.58;;;2.38;;
29940;SDS011;16801;53.562;10.038;2023-07-31T18:52:59;3.22;;;2.58;;
29940;SDS011;16801;53.562;10.038;2023-07-31T18:56:20;2.88;;;2.63;;
29940;SDS011;16801;53.562;10.038;2023-07-31T18:59:42;4.18;;;3.45;;
29940;SDS011;16801;53.562;10.038;2023-07-31T19:03:03;3.53;;;2.85;;
29940;SDS011;16801;53.562;10.038;2023-07-31T19:06:25;2.30;;;2.20;;
29940;SDS011;16801;53.562;10.038;2023-07-31T19:09:45;3.38;;;3.17;;
29940;SDS011;16801;53.562;10.038;2023-07-31T19:13:06;3.47;;;3.17;;
29940;SDS011;16801;53.562;10.038;2023-07-31T19:16:27;3.85;;;3.10;;
29940;SDS011;16801;53.562;10.038;2023-07-31T19:19:48;4.97;;;3.28;;
29940;SDS011;16801;53.562;10.038;2023-07-31T19:23:10;5.22;;;3.25;;
29940;SDS011;16801;53.562;10.038;2023-07-31T19:26:32;4.05;;;3.20;;
29940;SDS011;16801;53.562;10.038;2023-07-31T19:29:52;4.30;;;3.90;;
29940;SDS011;16801;53.562;10.038;2023-07-31T19:33:13;3.75;;;3.45;;
29940;SDS011;16801;53.562;10.038;2023-07-31T19:36:34;3.50;;;3.28;;
29940;SDS011;16801;53.562;10.038;2023-07-31T19:39:56;4.30;;;3.47;;
29940;SDS011;16801;53.562;10.038;2023-07-31T19:43:16;4.35;;;3.95;;
29940;SDS011;16801;53.562;10.038;2023-07-31T19:46:37;3.75;;;3.42;;
29940;SDS011;16801;53.562;10.038;2023-07-31T19:50:01;6.30;;;3.10;;
29940;SDS011;16801;53.562;10.038;2023-07-31T19:53:24;4.13;;;3.72;;
29940;SDS011;16801;53.562;10.038;2023-07-31T19:56:46;4.07;;;3.67;;